Time;durP1;ratioP1;P1;durP2;ratioP2;P2;SDS_P1;SDS_P2;PMS_P1;PMS_P2;Temp;Humidity;BMP_temperature;BMP_pressure;BME280_temperature;BME280_humidity;BME280_pressure;Samples;Min_cycle;Max_cycle;Signal;HPM_P1;HPM_P2
2022/09/07 00:04:03;;;;;;;3.50;1.60;;;;;;;9.68;50.58;99967.13;432211;1270;140545;-61
2022/09/07 00:14:10;;;;;;;6.20;1.90;;;;;;;9.56;51.12;99966.90;430473;1270;142301;-62
2022/09/07 00:24:16;;;;;;;2.30;1.60;;;;;;;9.42;51.28;99964.17;431817;1270;142497;-61
2022/09/07 00:34:22;;;;;;;3.80;2.70;;;;;;;9.27;51.47;99965.31;431214;1271;141930;-62
2022/09/07 00:45:00;;;;;;;3.00;2.10;;;;;;;9.17;51.80;99960.19;431408;1270;142852;-62
2022/09/07 00:55:11;;;;;;;2.30;1.90;;;;;;;9.08;52.04;99966.07;431806;1270;142664;-62
2022/09/07 01:05:24;;;;;;;3.90;1.40;;;;;;;9.02;52.21;99966.25;431667;1269;142791;-64
2022/09/07 01:15:39;;;;;;;3.90;1.60;;;;;;;8.93;52.25;99965.77;430700;1270;141788;-61
2022/09/07 01:25:57;;;;;;;2.70;1.50;;;;;;;8.84;52.57;99960.67;431845;1270;140935;-62
2022/09/07 01:36:12;;;;;;;2.40;1.70;;;;;;;8.76;52.87;99947.48;431036;1269;141115;-62
2022/09/07 01:46:22;;;;;;;4.10;1.60;;;;;;;8.71;53.07;99945.45;431330;1270;145043;-61
2022/09/07 01:56:33;;;;;;;3.30;1.70;;;;;;;8.64;53.15;99935.86;431155;1270;143826;-62
2022/09/07 02:06:43;;;;;;;3.10;1.80;;;;;;;8.52;53.24;99933.64;431908;1269;142086;-62
2022/09/07 02:16:55;;;;;;;4.80;1.90;;;;;;;8.37;53.80;99931.57;432026;1270;140651;-60
2022/09/07 02:27:07;;;;;;;2.50;1.60;;;;;;;8.26;54.09;99928.42;431331;1270;199635;-63
2022/09/07 02:37:17;;;;;;;5.20;2.00;;;;;;;8.16;54.23;99927.35;431347;1270;143266;-63
2022/09/07 02:47:31;;;;;;;3.30;1.70;;;;;;;8.06;54.49;99921.35;430135;1270;142530;-61
2022/09/07 02:57:46;;;;;;;4.00;1.50;;;;;;;7.99;54.79;99914.38;430733;1270;141631;-62
2022/09/07 03:08:00;;;;;;;2.10;1.80;;;;;;;7.94;54.89;99902.04;431096;1270;162894;-62
2022/09/07 03:18:06;;;;;;;3.70;2.40;;;;;;;7.90;55.02;99894.58;430981;1269;140458;-63
2022/09/07 03:28:12;;;;;;;5.10;2.30;;;;;;;7.93;54.84;99898.48;431400;1270;141708;-62
2022/09/07 03:38:18;;;;;;;2.40;1.70;;;;;;;7.90;54.82;99903.30;430186;1270;142108;-61
2022/09/07 03:48:24;;;;;;;3.40;2.10;;;;;;;7.80;54.99;99905.17;431717;1269;1341450;-62
2022/09/07 03:58:32;;;;;;;5.20;2.80;;;;;;;7.79;55.11;99909.41;431556;1271;141808;-61
2022/09/07 04:08:39;;;;;;;;;;;;;;;7.77;55.04;99906.35;429867;1270;144928;-61
2022/09/07 04:18:45;;;;;;;4.60;1.60;;;;;;;7.81;55.18;99902.14;432077;1270;130145;-62
2022/09/07 04:28:51;;;;;;;4.50;2.70;;;;;;;7.96;54.91;99890.30;430453;1270;142554;-61
2022/09/07 04:38:59;;;;;;;3.50;1.90;;;;;;;8.13;54.64;99886.14;430858;1270;144846;-62
2022/09/07 04:49:08;;;;;;;2.50;1.00;;;;;;;8.39;54.23;99890.27;430489;1273;140960;-63
2022/09/07 04:59:14;;;;;;;4.40;1.80;;;;;;;8.67;53.69;99892.91;433907;1273;146197;-63
2022/09/07 05:09:20;;;;;;;5.60;1.90;;;;;;;9.06;53.39;99883.55;430756;1270;142251;-62
2022/09/07 05:19:26;;;;;;;4.30;1.90;;;;;;;10.84;52.31;99876.48;430468;1271;146664;-63
2022/09/07 05:29:32;;;;;;;2.80;1.90;;;;;;;15.58;46.62;99870.16;446903;1269;143293;-62
2022/09/07 05:39:58;;;;;;;4.90;2.60;;;;;;;21.68;41.01;99864.70;447504;1271;153943;-63
2022/09/07 05:50:04;;;;;;;2.90;1.90;;;;;;;27.89;34.43;99857.00;432479;1271;141814;-61
2022/09/07 06:00:13;;;;;;;2.50;1.90;;;;;;;31.42;28.95;99856.17;434870;1270;140605;-61
2022/09/07 06:10:19;;;;;;;5.10;2.50;;;;;;;34.24;25.46;99854.06;432001;1270;142867;-63
2022/09/07 06:20:45;;;;;;;2.80;1.80;;;;;;;35.89;22.17;99841.59;430894;1271;145852;-62
2022/09/07 06:30:50;;;;;;;4.40;2.30;;;;;;;36.63;20.60;99838.42;431158;1270;144680;-63
2022/09/07 06:40:59;;;;;;;4.80;2.20;;;;;;;37.83;19.12;99840.58;430404;1270;144878;-62
2022/09/07 06:51:27;;;;;;;5.00;2.10;;;;;;;37.84;18.21;99844.50;431274;1270;141386;-62
2022/09/07 07:01:33;;;;;;;3.50;2.20;;;;;;;38.45;17.22;99842.73;431853;1270;141026;-63
2022/09/07 07:11:39;;;;;;;3.30;2.10;;;;;;;39.72;16.86;99842.95;431290;1273;141178;-64
2022/09/07 07:21:45;;;;;;;4.80;2.00;;;;;;;41.80;15.66;99833.27;431400;1270;142465;-62
2022/09/07 07:32:11;;;;;;;2.10;1.70;;;;;;;41.73;14.92;99832.67;430752;1270;140833;-63
2022/09/07 07:42:17;;;;;;;4.80;2.30;;;;;;;41.69;14.45;99823.73;431625;1270;141541;-62
2022/09/07 07:52:23;;;;;;;4.70;2.30;;;;;;;42.79;14.00;99818.16;434034;1270;140521;-62
2022/09/07 08:02:48;;;;;;;8.10;2.70;;;;;;;43.08;13.59;99828.97;431298;1270;141793;-62
2022/09/07 08:12:55;;;;;;;3.40;2.20;;;;;;;43.81;13.23;99826.60;431022;1270;141299;-63
2022/09/07 08:23:01;;;;;;;2.60;2.40;;;;;;;43.37;12.85;99826.63;430252;1271;146620;-63
2022/09/07 08:33:07;;;;;;;4.00;1.80;;;;;;;42.25;13.13;99822.47;433051;1270;144703;-62
2022/09/07 08:43:21;;;;;;;3.60;1.60;;;;;;;39.17;13.96;99816.27;433195;1271;141279;-61
2022/09/07 08:53:26;;;;;;;;;;;;;;;30.16;17.64;99806.98;432399;1270;146219;-61
2022/09/07 09:03:32;;;;;;;5.80;1.90;;;;;;;26.28;21.02;99825.77;431855;1270;126764;-60
2022/09/07 09:14:06;;;;;;;3.10;2.20;;;;;;;23.54;23.63;99827.12;431166;1271;147655;-63
2022/09/07 09:24:17;;;;;;;3.30;2.20;;;;;;;22.05;25.70;99810.97;432853;1271;147701;-62
2022/09/07 09:34:23;;;;;;;2.50;1.40;;;;;;;21.31;26.86;99803.65;433200;1273;141126;-61
2022/09/07 09:44:37;;;;;;;2.10;1.30;;;;;;;20.92;27.84;99793.48;432401;1274;142029;-63
2022/09/07 09:54:48;;;;;;;4.20;1.70;;;;;;;20.44;28.41;99783.99;432920;1270;144361;-62
2022/09/07 10:04:54;;;;;;;2.30;1.50;;;;;;;20.21;29.17;99772.30;431042;1271;142298;-62
2022/09/07 10:15:01;;;;;;;4.10;1.40;;;;;;;19.78;30.20;99768.42;430190;1271;143208;-62
2022/09/07 10:25:29;;;;;;;4.00;1.60;;;;;;;20.05;30.84;99765.92;430773;1271;198382;-62
2022/09/07 10:35:43;;;;;;;4.50;1.60;;;;;;;20.03;31.11;99762.73;430317;1271;142065;-64
2022/09/07 10:46:06;;;;;;;3.90;1.80;;;;;;;19.69;31.50;99761.86;433011;1270;142189;-63
2022/09/07 10:56:17;;;;;;;2.30;1.50;;;;;;;19.60;31.61;99750.95;430233;1271;141764;-64
2022/09/07 11:06:27;;;;;;;1.80;1.30;;;;;;;19.50;31.43;99733.88;432226;1271;196536;-61
2022/09/07 11:16:38;;;;;;;2.90;1.80;;;;;;;19.41;31.85;99724.30;432086;1270;141139;-61
2022/09/07 11:27:03;;;;;;;2.00;1.20;;;;;;;19.39;31.91;99734.21;432180;1270;142356;-64
2022/09/07 11:37:16;;;;;;;3.40;1.80;;;;;;;19.55;31.95;99728.90;432162;1272;142314;-64
2022/09/07 11:47:29;;;;;;;2.90;1.60;;;;;;;19.57;32.14;99716.69;430974;1270;141863;-63
2022/09/07 11:57:51;;;;;;;2.20;0.90;;;;;;;19.69;32.40;99703.23;431645;1270;141497;-62
2022/09/07 12:08:18;;;;;;;1.30;1.10;;;;;;;19.87;31.75;99702.67;430970;1270;195863;-63
2022/09/07 12:18:39;;;;;;;1.90;1.30;;;;;;;19.87;31.50;99703.86;431548;1270;143440;-62
2022/09/07 12:29:25;;;;;;;4.30;1.40;;;;;;;19.89;31.94;99702.08;431870;1271;141022;-63
2022/09/07 12:39:33;;;;;;;2.50;1.40;;;;;;;19.96;31.98;99682.10;431646;1270;141729;-61
2022/09/07 12:50:12;;;;;;;4.50;1.20;;;;;;;20.06;32.07;99664.87;432295;1270;141766;-62
2022/09/07 13:00:24;;;;;;;5.30;1.30;;;;;;;20.04;31.57;99658.36;431173;1273;141510;-64
2022/09/07 13:10:32;;;;;;;3.30;1.90;;;;;;;20.10;31.55;99653.26;432386;1273;142436;-63
2022/09/07 13:20:38;;;;;;;2.90;1.50;;;;;;;20.09;31.78;99648.73;433035;1271;141369;-61
2022/09/07 13:30:54;;;;;;;3.70;1.90;;;;;;;20.01;31.71;99635.23;432354;1270;141303;-64
2022/09/07 13:41:06;;;;;;;3.90;1.70;;;;;;;20.02;32.10;99627.80;430228;1270;141651;-63
2022/09/07 13:51:18;;;;;;;3.50;1.30;;;;;;;20.05;32.30;99626.92;431758;1270;141643;-63
2022/09/07 14:01:26;;;;;;;3.50;1.90;;;;;;;20.06;32.38;99622.25;431543;1270;140302;-62
2022/09/07 14:11:41;;;;;;;3.30;1.70;;;;;;;19.97;32.73;99621.33;431058;1270;196809;-64
2022/09/07 14:21:55;;;;;;;2.20;1.70;;;;;;;19.96;32.76;99620.98;434942;1270;142221;-62
2022/09/07 14:32:04;;;;;;;5.20;2.20;;;;;;;20.06;33.20;99607.54;430512;1270;145627;-62
2022/09/07 14:42:14;;;;;;;5.30;1.70;;;;;;;20.06;33.30;99597.41;442424;1270;142200;-63
2022/09/07 14:52:23;;;;;;;6.90;2.10;;;;;;;20.08;33.58;99592.52;431342;1270;140441;-62
2022/09/07 15:02:36;;;;;;;4.30;1.80;;;;;;;20.12;33.62;99582.94;433337;1270;141986;-61
2022/09/07 15:12:44;;;;;;;2.40;1.40;;;;;;;20.10;33.60;99578.84;431984;1270;147399;-60
2022/09/07 15:22:50;;;;;;;3.60;1.90;;;;;;;20.11;33.83;99577.61;433033;1270;141468;-60
2022/09/07 15:32:56;;;;;;;3.00;2.30;;;;;;;20.11;33.96;99570.75;442570;1270;141303;-62
2022/09/07 15:43:02;;;;;;;2.80;1.60;;;;;;;20.14;33.81;99560.98;446614;1270;1468785;-63
2022/09/07 15:53:24;;;;;;;4.00;1.80;;;;;;;20.10;34.14;99555.58;444621;1270;141842;-62
2022/09/07 16:03:54;;;;;;;5.00;2.80;;;;;;;19.99;34.07;99544.41;447174;1270;142114;-62
2022/09/07 16:14:01;;;;;;;7.70;1.90;;;;;;;19.82;34.07;99534.27;443519;1268;141993;-60
2022/09/07 16:24:08;;;;;;;4.10;2.30;;;;;;;19.62;34.24;99526.05;439792;1269;141223;-61
2022/09/07 16:34:19;;;;;;;4.20;2.20;;;;;;;19.32;34.55;99526.71;445299;1270;141243;-62
2022/09/07 16:44:25;;;;;;;4.20;2.10;;;;;;;18.97;34.97;99516.17;447002;1269;142776;-62
2022/09/07 16:54:31;;;;;;;6.20;2.80;;;;;;;18.61;35.35;99507.36;445815;1270;141733;-63
2022/09/07 17:04:37;;;;;;;7.20;2.60;;;;;;;18.28;35.80;99507.91;447702;1269;141703;-63
2022/09/07 17:14:42;;;;;;;4.70;2.90;;;;;;;17.96;36.58;99520.33;447089;1269;142463;-63
2022/09/07 17:24:48;;;;;;;4.20;2.30;;;;;;;17.62;37.21;99520.54;447010;1269;144082;-62
2022/09/07 17:34:55;;;;;;;11.60;7.10;;;;;;;17.35;37.92;99521.48;446436;1269;152378;-63
2022/09/07 17:45:00;;;;;;;7.50;2.80;;;;;;;17.15;38.51;99536.77;445777;1270;141974;-64
2022/09/07 17:55:07;;;;;;;14.40;4.40;;;;;;;16.92;39.22;99541.46;431376;1271;141346;-61
2022/09/07 18:05:13;;;;;;;5.70;3.20;;;;;;;16.64;40.13;99546.96;434034;1271;163195;-62
2022/09/07 18:15:20;;;;;;;10.30;3.10;;;;;;;16.38;40.94;99554.55;443748;1268;140775;-62
2022/09/07 18:25:26;;;;;;;5.80;3.90;;;;;;;16.17;41.22;99554.14;447452;1272;142684;-62
2022/09/07 18:35:32;;;;;;;5.20;2.40;;;;;;;16.08;41.25;99563.67;447152;1268;141415;-62
2022/09/07 18:45:38;;;;;;;6.60;3.10;;;;;;;16.10;41.01;99562.15;447936;1268;142182;-63
2022/09/07 18:55:44;;;;;;;5.80;3.20;;;;;;;16.07;40.87;99566.33;431714;1270;141732;-61
2022/09/07 19:05:51;;;;;;;10.20;3.20;;;;;;;16.00;40.72;99556.16;439661;1269;141306;-61
2022/09/07 19:16:04;;;;;;;4.80;3.50;;;;;;;15.91;40.58;99556.89;431512;1270;141924;-61
2022/09/07 19:26:10;;;;;;;11.10;5.50;;;;;;;15.72;40.96;99555.33;446888;1270;142664;-62
2022/09/07 19:36:16;;;;;;;6.70;4.40;;;;;;;15.49;41.75;99549.84;447719;1270;141724;-63
2022/09/07 19:46:22;;;;;;;8.60;4.30;;;;;;;15.28;42.25;99549.19;447688;1269;141406;-61
2022/09/07 19:56:29;;;;;;;4.90;3.50;;;;;;;15.09;42.66;99543.65;445588;1269;141682;-62
2022/09/07 20:06:39;;;;;;;8.50;4.40;;;;;;;14.92;42.89;99541.73;446026;1269;142319;-61
2022/09/07 20:16:45;;;;;;;5.30;3.00;;;;;;;14.74;43.06;99539.09;441161;1269;141436;-61
2022/09/07 20:26:51;;;;;;;5.30;4.00;;;;;;;14.54;43.14;99529.83;441261;1268;142875;-62
2022/09/07 20:36:57;;;;;;;10.60;3.70;;;;;;;14.40;43.32;99530.98;433592;1270;142061;-61
2022/09/07 20:47:03;;;;;;;4.40;2.90;;;;;;;14.26;43.53;99529.55;431056;1270;187611;-61
2022/09/07 20:57:09;;;;;;;4.60;3.10;;;;;;;14.17;43.68;99532.26;437749;1270;142996;-61
2022/09/07 21:07:15;;;;;;;6.40;3.60;;;;;;;14.07;43.87;99534.94;438975;1270;142033;-63
2022/09/07 21:17:21;;;;;;;5.90;3.40;;;;;;;13.99;44.05;99521.15;433143;1270;142618;-62
2022/09/07 21:27:27;;;;;;;5.40;3.50;;;;;;;13.90;44.29;99520.13;433006;1270;141905;-62
2022/09/07 21:37:32;;;;;;;6.30;3.80;;;;;;;13.75;44.58;99520.20;431467;1270;141663;-62
2022/09/07 21:47:38;;;;;;;7.80;3.60;;;;;;;13.60;44.68;99512.06;430268;1270;143373;-61
2022/09/07 21:57:44;;;;;;;7.60;3.60;;;;;;;13.46;45.15;99511.54;431020;1271;141431;-63
2022/09/07 22:07:50;;;;;;;8.00;3.80;;;;;;;13.34;45.43;99521.56;430888;1270;141414;-63
2022/09/07 22:17:56;;;;;;;6.50;3.60;;;;;;;13.24;45.70;99524.94;432571;1271;145854;-61
2022/09/07 22:28:03;;;;;;;6.50;3.70;;;;;;;13.12;45.96;99514.92;431141;1270;142471;-61
2022/09/07 22:38:09;;;;;;;6.60;4.20;;;;;;;13.00;46.23;99516.42;430993;1270;142792;-64
2022/09/07 22:48:14;;;;;;;4.30;3.60;;;;;;;12.88;46.54;99514.13;430530;1270;141358;-62
2022/09/07 22:58:20;;;;;;;7.00;4.20;;;;;;;12.77;46.75;99497.90;430111;1271;141332;-61
2022/09/07 23:08:27;;;;;;;7.30;3.80;;;;;;;12.68;47.04;99485.23;430816;1270;141869;-61
2022/09/07 23:18:34;;;;;;;9.00;4.10;;;;;;;12.56;47.38;99473.80;431853;1270;145605;-62
2022/09/07 23:28:40;;;;;;;5.10;3.20;;;;;;;12.48;47.43;99488.80;432615;1270;144861;-63
2022/09/07 23:38:46;;;;;;;6.70;4.40;;;;;;;12.40;47.62;99487.05;430585;1270;146239;-62
2022/09/07 23:48:52;;;;;;;5.90;4.10;;;;;;;12.31;47.95;99481.75;432822;1271;140405;-62
2022/09/07 23:58:58;;;;;;;6.90;4.20;;;;;;;12.18;48.22;99484.43;430164;1272;145607;-62
